Time;durP1;ratioP1;P1;durP2;ratioP2;P2;SDS_P1;SDS_P2;PMS_P1;PMS_P2;Temp;Humidity;BMP_temperature;BMP_pressure;BME280_temperature;BME280_humidity;BME280_pressure;Samples;Min_cycle;Max_cycle;Signal;HPM_P1;HPM_P2
2023/06/21 00:00:31;;;;;;;1.30;0.63;;;;;;;24.17;86.01;100477.81;5004824;28;20038;-69
2023/06/21 00:02:58;;;;;;;0.50;0.40;;;;;;;24.05;86.85;100447.59;5007042;28;20128;-68
2023/06/21 00:05:24;;;;;;;0.45;0.30;;;;;;;24.01;86.62;100441.44;4999697;28;20117;-69
2023/06/21 00:07:53;;;;;;;0.80;0.20;;;;;;;24.03;85.83;100423.31;4992897;28;20117;-68
2023/06/21 00:10:20;;;;;;;0.60;0.30;;;;;;;23.93;86.83;100418.16;4994116;28;20038;-68
2023/06/21 00:12:46;;;;;;;0.68;0.28;;;;;;;23.90;87.35;100399.81;5014228;28;20030;-68
2023/06/21 00:15:12;;;;;;;0.30;0.20;;;;;;;24.09;86.10;100393.19;5011522;28;20046;-68
2023/06/21 00:17:37;;;;;;;0.40;0.20;;;;;;;23.93;86.79;100388.66;4993961;28;20106;-67
2023/06/21 00:20:03;;;;;;;0.65;0.30;;;;;;;23.91;87.04;100354.56;5001346;28;20034;-68
2023/06/21 00:22:29;;;;;;;0.32;0.32;;;;;;;23.90;87.65;100336.53;4994425;28;20038;-67
2023/06/21 00:24:57;;;;;;;0.00;0.00;;;;;;;23.92;87.10;100342.34;4994199;28;20074;-67
2023/06/21 00:27:22;;;;;;;0.20;0.10;;;;;;;23.91;86.84;100343.53;4994667;28;20034;-67
2023/06/21 00:29:48;;;;;;;1.13;0.50;;;;;;;23.95;86.72;100335.91;4991441;28;20046;-67
2023/06/21 00:32:13;;;;;;;1.20;0.43;;;;;;;23.79;86.80;100331.44;4992422;28;20037;-67
2023/06/21 00:34:39;;;;;;;0.63;0.20;;;;;;;23.74;87.61;100326.53;5003754;28;20038;-67
2023/06/21 00:37:05;;;;;;;0.00;0.00;;;;;;;23.82;87.17;100349.03;4991027;28;20033;-67
2023/06/21 00:39:31;;;;;;;0.30;0.17;;;;;;;23.80;86.04;100363.25;5007951;28;20030;-67
2023/06/21 00:41:56;;;;;;;0.30;0.28;;;;;;;23.34;88.82;100355.19;5005320;28;20200;-67
2023/06/21 00:44:22;;;;;;;0.65;0.30;;;;;;;23.35;90.19;100349.25;4994365;28;20041;-67
2023/06/21 00:46:49;;;;;;;1.02;0.85;;;;;;;23.40;90.17;100332.19;4981377;28;20042;-68
2023/06/21 00:49:16;;;;;;;0.10;0.10;;;;;;;23.47;90.41;100314.63;4994607;28;20083;-67
2023/06/21 00:51:42;;;;;;;0.73;0.40;;;;;;;23.51;89.96;100305.03;5014513;28;20246;-68
2023/06/21 00:54:22;;;;;;;1.33;0.30;;;;;;;23.48;89.81;100314.19;4993650;28;20037;-68
2023/06/21 00:56:48;;;;;;;0.55;0.20;;;;;;;23.51;89.63;100329.00;5011713;28;20398;-67
2023/06/21 00:59:13;;;;;;;1.40;0.20;;;;;;;23.53;88.90;100332.06;4975124;28;20044;-67
2023/06/21 01:01:39;;;;;;;0.22;0.15;;;;;;;23.48;89.56;100338.19;4990231;28;20033;-67
2023/06/21 01:04:08;;;;;;;0.30;0.15;;;;;;;23.43;89.94;100341.50;5013900;28;20461;-67
2023/06/21 01:06:36;;;;;;;0.30;0.30;;;;;;;23.30;90.00;100341.56;5000890;28;20033;-67
2023/06/21 01:09:13;;;;;;;0.40;0.30;;;;;;;23.36;90.19;100336.25;4996770;28;20034;-67
2023/06/21 01:12:25;;;;;;;0.32;0.20;;;;;;;23.40;90.65;100331.41;4999052;28;20034;-67
2023/06/21 01:15:03;;;;;;;0.17;0.13;;;;;;;23.36;90.31;100339.78;5007075;28;20034;-67
2023/06/21 01:17:34;;;;;;;0.28;0.25;;;;;;;23.37;89.99;100351.53;4997946;28;20026;-68
2023/06/21 01:20:01;;;;;;;3.92;0.20;;;;;;;23.29;90.24;100349.03;4996156;28;20069;-68
2023/06/21 01:23:03;;;;;;;0.28;0.20;;;;;;;23.24;90.34;100348.84;4992238;28;20028;-67
2023/06/21 01:25:52;;;;;;;0.85;0.30;;;;;;;23.16;89.99;100345.59;5001169;28;20155;-67
2023/06/21 01:28:26;;;;;;;0.98;0.40;;;;;;;23.03;91.61;100352.34;4993054;28;20048;-67
2023/06/21 01:30:57;;;;;;;0.65;0.30;;;;;;;23.19;90.00;100343.91;5006870;28;20030;-67
2023/06/21 01:33:23;;;;;;;2.92;0.15;;;;;;;23.12;90.74;100330.44;5015691;28;20037;-68
2023/06/21 01:35:52;;;;;;;0.63;0.30;;;;;;;23.06;91.61;100327.50;5013174;28;20041;-67
2023/06/21 01:38:19;;;;;;;1.15;0.30;;;;;;;22.92;91.82;100328.00;5016616;28;20102;-67
2023/06/21 01:40:45;;;;;;;0.40;0.30;;;;;;;22.97;92.12;100330.19;4977250;28;20049;-67
2023/06/21 01:43:11;;;;;;;0.68;0.30;;;;;;;23.16;91.04;100337.34;4990118;28;20022;-67
2023/06/21 01:45:37;;;;;;;3.65;0.40;;;;;;;23.30;89.98;100342.31;5018422;28;20037;-67
2023/06/21 01:48:04;;;;;;;0.63;0.47;;;;;;;23.25;90.04;100331.13;4993865;28;20083;-67
2023/06/21 01:50:31;;;;;;;0.57;0.30;;;;;;;23.10;91.66;100325.38;5004544;28;20040;-67
2023/06/21 01:52:58;;;;;;;0.50;0.50;;;;;;;23.14;91.50;100328.00;4999969;28;20022;-67
2023/06/21 01:55:25;;;;;;;0.63;0.40;;;;;;;23.19;90.59;100339.19;5015551;28;20033;-67
2023/06/21 01:57:52;;;;;;;0.90;0.35;;;;;;;23.10;91.41;100344.63;5010161;28;20045;-68
2023/06/21 02:00:21;;;;;;;0.73;0.40;;;;;;;23.07;92.09;100344.75;4992598;28;20092;-68
2023/06/21 02:02:52;;;;;;;0.28;0.28;;;;;;;23.10;91.16;100350.13;4993508;28;20750;-67
2023/06/21 02:05:19;;;;;;;0.60;0.40;;;;;;;23.06;92.17;100352.22;4997071;28;20034;-68
2023/06/21 02:07:46;;;;;;;0.35;0.30;;;;;;;23.18;91.22;100359.66;4989945;28;20045;-68
2023/06/21 02:10:14;;;;;;;0.38;0.30;;;;;;;23.24;91.03;100352.38;4996486;28;20056;-68
2023/06/21 02:12:40;;;;;;;0.38;0.32;;;;;;;23.21;91.22;100350.50;4980995;28;20061;-68
2023/06/21 02:15:07;;;;;;;0.73;0.30;;;;;;;23.25;90.71;100348.38;4992862;28;20494;-68
2023/06/21 02:17:32;;;;;;;2.17;0.30;;;;;;;23.22;91.78;100352.03;4999826;28;20034;-69
2023/06/21 02:19:58;;;;;;;0.32;0.22;;;;;;;23.14;92.38;100347.25;5000812;28;20049;-67
2023/06/21 02:22:23;;;;;;;0.50;0.30;;;;;;;23.03;91.80;100344.13;5012732;28;20046;-68
2023/06/21 02:24:53;;;;;;;0.52;0.32;;;;;;;22.85;93.29;100349.47;5001740;28;20050;-69
2023/06/21 02:27:18;;;;;;;1.10;0.50;;;;;;;22.94;93.49;100349.53;4975423;28;20097;-68
2023/06/21 02:29:44;;;;;;;0.80;0.28;;;;;;;22.84;92.74;100347.94;4991568;28;20138;-68
2023/06/21 02:32:09;;;;;;;0.70;0.47;;;;;;;22.60;94.72;100357.78;5008209;28;20099;-68
2023/06/21 02:34:34;;;;;;;2.35;0.77;;;;;;;22.70;95.14;100356.66;4995804;28;20037;-68
2023/06/21 02:37:02;;;;;;;0.30;0.30;;;;;;;22.80;95.47;100356.28;4995926;28;20172;-68
2023/06/21 02:39:27;;;;;;;1.17;0.40;;;;;;;22.90;94.46;100357.91;5003872;28;20022;-68
2023/06/21 02:41:54;;;;;;;0.93;0.50;;;;;;;22.92;94.73;100360.19;5013009;28;20042;-68
2023/06/21 02:44:20;;;;;;;0.60;0.40;;;;;;;22.96;93.68;100358.88;4995431;28;20120;-68
2023/06/21 02:46:45;;;;;;;0.77;0.40;;;;;;;22.80;94.12;100356.28;5005442;28;20105;-68
2023/06/21 02:49:10;;;;;;;0.40;0.40;;;;;;;22.68;94.69;100361.84;5003363;28;20470;-65
2023/06/21 02:51:36;;;;;;;0.55;0.38;;;;;;;22.80;94.99;100375.50;4989416;28;20033;-67
2023/06/21 02:54:02;;;;;;;0.93;0.38;;;;;;;22.89;94.22;100375.59;4978665;28;20096;-66
2023/06/21 02:56:30;;;;;;;0.65;0.32;;;;;;;22.84;94.51;100389.88;4994741;28;20450;-67
2023/06/21 02:58:56;;;;;;;2.35;0.28;;;;;;;23.01;93.39;100391.28;5010460;28;20117;-66
2023/06/21 03:01:21;;;;;;;0.57;0.40;;;;;;;23.00;93.74;100386.22;5004211;28;20125;-66
2023/06/21 03:03:47;;;;;;;2.13;0.30;;;;;;;23.03;93.33;100383.34;5002415;28;20046;-67
2023/06/21 03:06:12;;;;;;;0.70;0.50;;;;;;;22.92;93.79;100396.69;4991132;28;20042;-66
2023/06/21 03:08:38;;;;;;;0.98;0.50;;;;;;;22.86;94.59;100395.72;5004809;28;20034;-66
2023/06/21 03:11:08;;;;;;;0.52;0.45;;;;;;;23.02;93.72;100397.53;5000566;28;20394;-67
2023/06/21 03:13:37;;;;;;;0.87;0.60;;;;;;;22.89;94.00;100402.31;5000024;28;20037;-66
2023/06/21 03:16:04;;;;;;;1.60;0.68;;;;;;;22.87;94.61;100402.75;4994450;28;20288;-66
2023/06/21 03:18:30;;;;;;;0.55;0.35;;;;;;;22.86;94.29;100408.69;5006034;28;20030;-66
2023/06/21 03:21:00;;;;;;;0.68;0.47;;;;;;;22.84;94.96;100417.34;5004451;28;20486;-66
2023/06/21 03:23:26;;;;;;;1.08;0.38;;;;;;;22.81;95.03;100425.72;4992675;28;20041;-66
2023/06/21 03:25:51;;;;;;;2.40;0.45;;;;;;;22.96;93.61;100432.28;4991658;28;20027;-66
2023/06/21 03:28:17;;;;;;;0.80;0.50;;;;;;;22.85;94.79;100423.63;4994151;28;20128;-66
2023/06/21 03:30:42;;;;;;;1.52;0.70;;;;;;;22.85;94.99;100432.66;4994307;28;20076;-66
2023/06/21 03:33:08;;;;;;;1.00;0.70;;;;;;;22.91;94.49;100441.09;4989088;28;20041;-66
2023/06/21 03:35:33;;;;;;;1.45;0.70;;;;;;;22.85;94.88;100438.13;5006568;28;20038;-66
2023/06/21 03:38:00;;;;;;;1.55;0.82;;;;;;;22.89;94.09;100444.28;4995218;28;20505;-66
2023/06/21 03:40:33;;;;;;;2.42;1.20;;;;;;;22.97;93.87;100440.09;4991593;28;20041;-66
2023/06/21 03:42:59;;;;;;;2.35;1.30;;;;;;;23.00;93.92;100441.94;5002515;28;20034;-66
2023/06/21 03:45:24;;;;;;;2.45;1.10;;;;;;;22.99;93.84;100450.63;4983994;28;20034;-66
2023/06/21 03:47:54;;;;;;;1.42;1.00;;;;;;;22.87;95.11;100454.94;4999348;28;20524;-66
2023/06/21 03:50:20;;;;;;;3.35;1.45;;;;;;;23.00;94.63;100466.66;5004683;28;20042;-67
2023/06/21 03:52:47;;;;;;;3.20;1.25;;;;;;;22.98;94.55;100451.81;4990130;28;20052;-67
2023/06/21 03:55:14;;;;;;;3.30;1.33;;;;;;;23.03;94.25;100457.56;4989409;28;20029;-67
2023/06/21 03:57:41;;;;;;;2.80;1.25;;;;;;;22.98;95.24;100446.34;4984681;28;20034;-67
2023/06/21 04:00:11;;;;;;;1.58;1.02;;;;;;;22.98;95.41;100446.34;5008480;28;20030;-67
2023/06/21 04:02:50;;;;;;;1.30;1.00;;;;;;;22.93;96.08;100450.44;4985788;28;20033;-67
2023/06/21 04:05:16;;;;;;;2.72;1.20;;;;;;;23.00;96.09;100455.66;5003071;28;20061;-66
2023/06/21 04:07:42;;;;;;;2.90;1.15;;;;;;;23.02;96.18;100461.50;4987434;28;20064;-67
2023/06/21 04:10:09;;;;;;;2.70;1.33;;;;;;;23.16;95.20;100463.78;4972064;28;20021;-66
2023/06/21 04:12:36;;;;;;;1.77;1.25;;;;;;;23.05;95.85;100452.34;5007432;28;20540;-66
2023/06/21 04:15:01;;;;;;;1.77;1.15;;;;;;;23.04;96.38;100456.31;4990865;28;20054;-66
2023/06/21 04:17:27;;;;;;;4.70;1.48;;;;;;;22.97;96.92;100456.56;4993493;28;20357;-67
2023/06/21 04:19:56;;;;;;;2.00;1.20;;;;;;;22.99;96.66;100445.91;4975340;28;20394;-66
2023/06/21 04:22:23;;;;;;;2.90;1.30;;;;;;;23.11;96.44;100458.81;5008091;28;20132;-66
2023/06/21 04:25:09;;;;;;;3.53;1.70;;;;;;;23.19;96.54;100453.84;4988435;28;20057;-67
2023/06/21 04:27:35;;;;;;;3.05;1.48;;;;;;;23.17;96.64;100451.53;4910021;29;20055;-66
2023/06/21 04:30:00;;;;;;;3.03;1.50;;;;;;;23.17;97.11;100450.81;4909126;29;20039;-67
2023/06/21 04:32:32;;;;;;;2.25;1.20;;;;;;;23.26;96.69;100445.38;4897973;29;20044;-66
2023/06/21 04:34:59;;;;;;;;;;;;;;;23.32;96.56;100443.63;4908973;29;20043;-67
2023/06/21 04:37:25;;;;;;;4.70;1.67;;;;;;;23.22;97.05;100445.50;4905098;29;19920;-67
2023/06/21 04:39:51;;;;;;;3.15;1.52;;;;;;;23.25;97.02;100457.56;4892959;29;20454;-67
2023/06/21 04:42:20;;;;;;;2.42;1.77;;;;;;;23.36;96.93;100465.47;4907810;29;20051;-67
2023/06/21 04:44:48;;;;;;;4.55;2.25;;;;;;;23.45;96.54;100471.03;4915383;29;20044;-67
2023/06/21 04:47:15;;;;;;;6.93;1.98;;;;;;;23.45;97.12;100465.53;4907938;29;20039;-67
2023/06/21 04:49:41;;;;;;;3.63;2.15;;;;;;;23.53;96.84;100469.56;4898544;29;20032;-67
2023/06/21 04:52:06;;;;;;;4.13;1.95;;;;;;;23.53;96.68;100480.56;4910051;29;20056;-67
2023/06/21 04:54:32;;;;;;;4.45;2.33;;;;;;;23.65;96.02;100479.75;4908107;29;20048;-67
2023/06/21 04:56:58;;;;;;;3.72;1.58;;;;;;;23.77;95.19;100485.19;4907466;29;20028;-67
2023/06/21 04:59:23;;;;;;;4.20;2.30;;;;;;;23.68;95.64;100489.84;4906320;29;20051;-67
2023/06/21 05:01:49;;;;;;;4.50;2.25;;;;;;;23.65;96.21;100488.00;4900753;29;20047;-67
2023/06/21 05:04:14;;;;;;;6.43;2.55;;;;;;;23.69;96.12;100485.91;4941373;28;20034;-67
2023/06/21 05:06:40;;;;;;;3.20;1.95;;;;;;;23.79;95.83;100490.25;4987341;28;20046;-66
2023/06/21 05:09:06;;;;;;;3.15;1.77;;;;;;;23.72;96.33;100491.25;5005637;28;20108;-66
2023/06/21 05:11:31;;;;;;;3.42;2.05;;;;;;;23.79;96.37;100490.25;4992564;28;20506;-66
2023/06/21 05:13:57;;;;;;;5.85;2.28;;;;;;;23.97;96.21;100490.34;5009057;28;20034;-66
2023/06/21 05:16:22;;;;;;;4.55;3.05;;;;;;;24.17;96.21;100508.09;5008015;28;20046;-66
2023/06/21 05:18:48;;;;;;;3.25;1.88;;;;;;;24.65;94.31;100525.88;5014385;28;20117;-65
2023/06/21 05:21:13;;;;;;;3.90;2.15;;;;;;;24.85;93.93;100526.28;5009433;28;20053;-66
2023/06/21 05:23:39;;;;;;;4.15;2.35;;;;;;;24.93;92.93;100532.28;5003719;28;20541;-66
2023/06/21 05:26:04;;;;;;;4.35;2.88;;;;;;;24.84;92.59;100535.00;4992764;28;20037;-66
2023/06/21 05:28:30;;;;;;;5.32;2.60;;;;;;;24.65;92.30;100541.66;4990647;28;20501;-66
2023/06/21 05:30:55;;;;;;;3.03;1.83;;;;;;;24.48;92.07;100532.88;4972920;28;20065;-66
2023/06/21 05:33:20;;;;;;;3.80;2.20;;;;;;;24.49;91.56;100539.91;5013123;28;20482;-65
2023/06/21 05:35:46;;;;;;;3.30;1.98;;;;;;;24.40;91.82;100545.38;5010259;28;20053;-66
2023/06/21 05:38:11;;;;;;;3.65;2.33;;;;;;;24.38;91.79;100533.25;5009608;28;20026;-65
2023/06/21 05:40:37;;;;;;;4.72;1.98;;;;;;;24.14;93.20;100532.97;5008423;28;20550;-65
2023/06/21 05:43:03;;;;;;;3.20;2.08;;;;;;;24.15;93.14;100537.28;5003547;28;20502;-66
2023/06/21 05:45:29;;;;;;;3.03;1.70;;;;;;;24.10;93.32;100540.59;5008613;28;20498;-65
2023/06/21 05:47:55;;;;;;;4.28;2.42;;;;;;;24.11;93.34;100545.69;5007658;28;20021;-65
2023/06/21 05:50:20;;;;;;;4.60;2.30;;;;;;;24.22;92.80;100545.25;5007030;28;20030;-65
2023/06/21 05:52:46;;;;;;;5.25;2.58;;;;;;;24.18;92.93;100550.13;5008961;28;20033;-65
2023/06/21 05:55:11;;;;;;;4.80;3.00;;;;;;;24.13;93.57;100550.72;4992313;28;20053;-65
2023/06/21 05:57:37;;;;;;;5.53;2.85;;;;;;;24.11;93.99;100547.66;5013493;28;20044;-65
2023/06/21 06:00:05;;;;;;;5.07;3.08;;;;;;;24.09;93.87;100556.38;5008625;28;20115;-66
2023/06/21 06:02:39;;;;;;;5.95;2.90;;;;;;;23.99;94.41;100556.72;5006191;28;20034;-66
2023/06/21 06:05:05;;;;;;;7.93;3.30;;;;;;;24.02;94.29;100564.88;5004229;28;20034;-66
2023/06/21 06:07:30;;;;;;;7.80;3.60;;;;;;;23.99;94.61;100565.75;5006747;28;20773;-66
2023/06/21 06:09:56;;;;;;;8.93;3.95;;;;;;;24.01;94.36;100568.81;5007589;28;20117;-66
2023/06/21 06:12:21;;;;;;;8.48;4.63;;;;;;;24.06;94.11;100560.00;5006253;28;20065;-66
2023/06/21 06:14:48;;;;;;;8.07;3.78;;;;;;;23.96;94.80;100565.88;5004655;28;20029;-66
2023/06/21 06:17:13;;;;;;;7.80;3.20;;;;;;;24.11;94.15;100573.19;5017457;28;20029;-65
2023/06/21 06:19:39;;;;;;;7.82;3.97;;;;;;;24.07;94.64;100564.31;5004980;28;20037;-66
2023/06/21 06:22:04;;;;;;;9.82;4.97;;;;;;;24.09;95.22;100564.63;5007252;28;20034;-66
2023/06/21 06:24:30;;;;;;;9.40;4.50;;;;;;;24.23;94.33;100579.06;5004400;28;20109;-66
2023/06/21 06:26:55;;;;;;;11.48;4.78;;;;;;;24.14;94.52;100577.78;5000735;28;20499;-66
2023/06/21 06:29:21;;;;;;;10.20;4.30;;;;;;;24.07;95.57;100589.06;5003806;28;20038;-66
2023/06/21 06:31:46;;;;;;;8.98;4.53;;;;;;;24.08;95.58;100592.56;5005993;28;20082;-66
2023/06/21 06:34:12;;;;;;;7.47;4.53;;;;;;;24.03;95.45;100601.41;5005436;28;20022;-66
2023/06/21 06:36:37;;;;;;;8.43;4.10;;;;;;;24.20;95.27;100602.00;5003348;28;20161;-66
2023/06/21 06:39:03;;;;;;;7.07;4.45;;;;;;;24.31;95.80;100596.88;4974073;28;20482;-66
2023/06/21 06:41:49;;;;;;;14.38;5.15;;;;;;;24.41;96.55;100607.47;4982025;28;20409;-66
2023/06/21 06:44:15;;;;;;;9.90;4.43;;;;;;;24.60;95.89;100609.13;4920061;29;20039;-66
2023/06/21 06:46:41;;;;;;;9.60;4.85;;;;;;;24.79;95.55;100610.00;4928573;29;20067;-65
2023/06/21 06:49:06;;;;;;;10.27;5.32;;;;;;;25.09;93.46;100619.47;4926442;29;20044;-68
2023/06/21 06:51:32;;;;;;;12.25;4.72;;;;;;;25.12;92.64;100622.09;4925614;29;20032;-67
2023/06/21 06:53:57;;;;;;;9.05;4.90;;;;;;;25.29;91.29;100625.34;4927676;29;20051;-68
2023/06/21 06:56:23;;;;;;;8.68;4.85;;;;;;;25.17;91.05;100635.25;4932565;29;20174;-67
2023/06/21 06:58:48;;;;;;;8.50;4.60;;;;;;;25.20;91.21;100639.88;4933375;29;20027;-68
2023/06/21 07:01:15;;;;;;;8.43;4.82;;;;;;;25.41;90.47;100639.06;4923035;29;20090;-67
2023/06/21 07:03:40;;;;;;;9.93;5.03;;;;;;;25.46;90.24;100643.19;4919582;29;20166;-67
2023/06/21 07:06:06;;;;;;;13.32;5.38;;;;;;;25.57;89.06;100636.00;4926649;29;20119;-67
2023/06/21 07:08:31;;;;;;;9.23;4.30;;;;;;;25.58;88.77;100636.78;4922354;29;20586;-67
2023/06/21 07:10:56;;;;;;;9.35;4.78;;;;;;;25.63;88.45;100656.25;4924788;29;21484;-67
2023/06/21 07:13:23;;;;;;;9.38;4.65;;;;;;;25.58;88.75;100654.09;4911620;29;20099;-67
2023/06/21 07:15:48;;;;;;;10.73;4.70;;;;;;;25.57;87.99;100663.59;4926749;29;20559;-67
2023/06/21 07:18:14;;;;;;;8.50;4.47;;;;;;;25.50;88.18;100660.34;4919780;29;20070;-67
2023/06/21 07:20:39;;;;;;;11.05;4.55;;;;;;;25.81;87.32;100669.31;4952778;28;20068;-67
2023/06/21 07:23:05;;;;;;;7.35;4.38;;;;;;;25.79;87.08;100674.50;5008170;28;20037;-67
2023/06/21 07:25:30;;;;;;;12.27;5.25;;;;;;;25.91;86.80;100668.09;5012510;28;20549;-66
2023/06/21 07:27:56;;;;;;;8.77;4.40;;;;;;;26.10;86.01;100671.66;5011915;28;20111;-67
2023/06/21 07:30:25;;;;;;;5.97;3.63;;;;;;;26.12;84.48;100678.25;5011955;28;20041;-67
2023/06/21 07:32:50;;;;;;;7.95;4.18;;;;;;;26.09;83.65;100681.16;5001705;28;20095;-68
2023/06/21 07:35:16;;;;;;;6.63;3.47;;;;;;;26.06;83.82;100682.06;5008777;28;20037;-67
2023/06/21 07:37:43;;;;;;;7.60;3.58;;;;;;;26.17;84.30;100680.38;5009268;28;20109;-68
2023/06/21 07:40:09;;;;;;;6.60;3.88;;;;;;;26.27;83.46;100687.44;5002451;28;20037;-67
2023/06/21 07:42:35;;;;;;;10.75;3.78;;;;;;;26.43;80.82;100689.91;5032373;23;20417;-67
2023/06/21 07:45:00;;;;;;;5.80;3.60;;;;;;;26.24;80.53;100698.66;5021155;28;20091;-68
2023/06/21 07:47:26;;;;;;;6.28;3.92;;;;;;;26.30;80.38;100691.28;5013963;28;20416;-67
2023/06/21 07:49:51;;;;;;;9.95;4.55;;;;;;;26.39;81.25;100696.81;5007819;28;20116;-66
2023/06/21 07:52:37;;;;;;;7.75;4.07;;;;;;;26.65;80.79;100695.25;4987133;28;20065;-67
2023/06/21 07:55:09;;;;;;;9.82;4.50;;;;;;;26.90;81.28;100705.19;4921703;29;20475;-66
2023/06/21 07:57:34;;;;;;;6.15;3.85;;;;;;;27.10;81.09;100705.44;4911697;29;20076;-67
2023/06/21 08:00:08;;;;;;;6.43;3.97;;;;;;;27.33;78.74;100711.03;4912243;29;20052;-67
2023/06/21 08:02:38;;;;;;;5.63;3.42;;;;;;;27.34;77.48;100717.34;4916820;29;20091;-66
2023/06/21 08:05:05;;;;;;;6.95;3.92;;;;;;;27.48;75.36;100714.69;4910706;29;20036;-67
2023/06/21 08:07:31;;;;;;;7.20;3.95;;;;;;;27.55;73.76;100716.31;4907938;29;20043;-65
2023/06/21 08:09:56;;;;;;;5.65;3.42;;;;;;;27.58;72.49;100713.38;4903047;29;20036;-65
2023/06/21 08:12:22;;;;;;;6.28;3.80;;;;;;;27.66;71.18;100716.59;4906898;29;20584;-66
2023/06/21 08:14:47;;;;;;;5.93;4.00;;;;;;;27.62;71.61;100716.72;4895605;29;20453;-65
2023/06/21 08:17:13;;;;;;;7.57;4.20;;;;;;;27.39;71.15;100714.69;4913586;29;20036;-67
2023/06/21 08:19:38;;;;;;;7.13;3.88;;;;;;;27.16;72.37;100720.19;4917373;29;20492;-66
2023/06/21 08:22:04;;;;;;;7.32;4.03;;;;;;;27.00;72.38;100728.81;4911673;29;20044;-65
2023/06/21 08:24:29;;;;;;;7.25;3.83;;;;;;;27.15;72.68;100726.94;4894501;29;20036;-68
2023/06/21 08:26:55;;;;;;;6.47;3.80;;;;;;;27.20;73.66;100726.28;4907959;29;20577;-66
2023/06/21 08:29:20;;;;;;;7.82;3.95;;;;;;;27.40;73.97;100727.31;4908775;29;20036;-65
2023/06/21 08:31:45;;;;;;;5.35;3.60;;;;;;;27.63;73.76;100723.03;4941364;28;20498;-65
2023/06/21 08:34:11;;;;;;;6.97;3.95;;;;;;;27.92;70.60;100728.72;5013192;28;20045;-66
2023/06/21 08:36:38;;;;;;;6.88;4.30;;;;;;;28.10;68.94;100734.16;5007202;28;20061;-66
2023/06/21 08:39:04;;;;;;;5.55;3.33;;;;;;;28.28;67.65;100730.47;5005681;28;20037;-65
2023/06/21 08:41:30;;;;;;;5.20;3.25;;;;;;;28.48;68.77;100747.22;5010975;28;20398;-64
2023/06/21 08:43:56;;;;;;;5.68;3.53;;;;;;;28.48;68.86;100741.69;5009903;28;20061;-65
2023/06/21 08:46:25;;;;;;;5.30;3.28;;;;;;;28.68;68.82;100744.63;5010082;28;20472;-64
2023/06/21 08:48:52;;;;;;;5.25;2.97;;;;;;;28.87;69.01;100743.19;4973590;28;20298;-66
2023/06/21 08:51:20;;;;;;;4.85;3.28;;;;;;;29.09;66.85;100740.03;5006228;28;20081;-65
2023/06/21 08:53:53;;;;;;;4.82;3.28;;;;;;;29.01;64.67;100744.44;5007821;28;20037;-65
2023/06/21 08:56:23;;;;;;;5.18;3.28;;;;;;;28.98;62.53;100745.38;5009462;28;20475;-65
2023/06/21 08:58:59;;;;;;;6.93;2.60;;;;;;;28.80;62.96;100749.13;5010418;28;20038;-64
2023/06/21 09:01:28;;;;;;;5.60;3.40;;;;;;;28.73;63.07;100749.50;5004428;28;20053;-66
2023/06/21 09:03:57;;;;;;;3.13;2.28;;;;;;;28.63;63.79;100750.81;5007184;28;20518;-65
2023/06/21 09:06:24;;;;;;;3.40;2.13;;;;;;;28.65;64.95;100751.09;5007156;28;20498;-66
2023/06/21 09:08:54;;;;;;;3.42;2.40;;;;;;;28.84;65.01;100755.22;4989947;28;20136;-65
2023/06/21 09:11:23;;;;;;;4.15;2.67;;;;;;;29.12;62.93;100747.38;5002735;28;20030;-65
2023/06/21 09:13:49;;;;;;;5.10;2.80;;;;;;;29.09;64.32;100760.19;5006162;28;20044;-65
2023/06/21 09:16:16;;;;;;;3.28;2.25;;;;;;;29.11;62.67;100770.84;5005834;28;20505;-65
2023/06/21 09:18:43;;;;;;;3.65;2.22;;;;;;;29.26;60.71;100779.94;5008285;28;20092;-65
2023/06/21 09:21:09;;;;;;;2.83;1.92;;;;;;;29.11;62.51;100773.63;5004720;28;20048;-65
2023/06/21 09:23:39;;;;;;;3.85;1.88;;;;;;;29.11;62.14;100779.16;4997874;28;20042;-65
2023/06/21 09:26:05;;;;;;;4.55;2.47;;;;;;;29.19;61.15;100778.31;5010676;28;20394;-65
2023/06/21 09:28:31;;;;;;;3.35;1.92;;;;;;;29.20;60.36;100779.09;5005249;28;20030;-67
2023/06/21 09:30:56;;;;;;;3.88;2.00;;;;;;;29.43;57.92;100786.53;5008915;28;20033;-65
2023/06/21 09:33:25;;;;;;;3.08;1.77;;;;;;;29.40;58.06;100790.28;5010316;28;20117;-65
2023/06/21 09:35:51;;;;;;;2.20;1.70;;;;;;;29.43;58.49;100789.31;4983344;28;20033;-65
2023/06/21 09:38:23;;;;;;;3.38;1.95;;;;;;;29.49;58.17;100794.94;5006811;28;20034;-66
2023/06/21 09:40:49;;;;;;;4.00;2.38;;;;;;;29.59;58.48;100788.81;5007500;28;20057;-65
2023/06/21 09:43:14;;;;;;;2.72;1.90;;;;;;;29.76;57.68;100794.63;5009487;28;20051;-65
2023/06/21 09:45:40;;;;;;;2.30;1.65;;;;;;;29.93;56.45;100793.59;5009726;28;20034;-65
2023/06/21 09:48:05;;;;;;;4.07;1.83;;;;;;;30.18;56.02;100794.94;5009177;28;20033;-66
2023/06/21 09:50:44;;;;;;;5.22;2.38;;;;;;;30.46;54.80;100796.06;4985860;28;20494;-65
2023/06/21 09:53:13;;;;;;;4.63;1.85;;;;;;;30.55;54.18;100807.03;5009149;28;20025;-65
2023/06/21 09:55:43;;;;;;;3.28;2.10;;;;;;;30.75;54.27;100800.69;5006515;28;20041;-64
2023/06/21 09:58:09;;;;;;;3.10;1.80;;;;;;;31.00;53.56;100809.06;5007073;28;20048;-64
2023/06/21 10:00:35;;;;;;;2.78;1.52;;;;;;;31.21;52.93;100818.13;5001739;28;20037;-65
2023/06/21 10:03:03;;;;;;;3.42;2.60;;;;;;;31.41;52.49;100814.50;5008872;28;20044;-65
2023/06/21 10:05:28;;;;;;;3.53;2.05;;;;;;;31.34;50.89;100821.25;4991314;28;20080;-64
2023/06/21 10:07:54;;;;;;;2.03;1.55;;;;;;;31.17;51.65;100820.34;5004692;28;20030;-65
2023/06/21 10:10:19;;;;;;;2.88;2.03;;;;;;;30.81;52.57;100813.41;5009058;28;20522;-64
2023/06/21 10:12:52;;;;;;;4.93;2.20;;;;;;;30.50;52.67;100810.53;4978368;28;20049;-64
2023/06/21 10:15:18;;;;;;;4.18;2.13;;;;;;;30.54;52.21;100818.66;4985599;28;20044;-64
2023/06/21 10:17:45;;;;;;;3.33;2.15;;;;;;;30.20;53.40;100823.78;5003998;28;20034;-65
2023/06/21 10:20:14;;;;;;;3.70;2.05;;;;;;;30.10;53.98;100829.97;5018023;28;20034;-64
2023/06/21 10:22:40;;;;;;;4.22;1.73;;;;;;;30.23;53.83;100825.59;5007616;28;20084;-65
2023/06/21 10:25:07;;;;;;;3.55;2.15;;;;;;;30.09;53.15;100831.22;5008089;28;20048;-65
2023/06/21 10:27:34;;;;;;;3.65;2.40;;;;;;;30.08;52.43;100822.09;4995054;28;20048;-65
2023/06/21 10:30:01;;;;;;;4.97;2.35;;;;;;;29.93;53.54;100831.75;4981116;28;20053;-67
2023/06/21 10:32:27;;;;;;;4.72;2.30;;;;;;;29.95;52.91;100830.00;5002367;28;20080;-65
2023/06/21 10:35:17;;;;;;;3.63;1.85;;;;;;;30.05;52.98;100828.66;5005578;28;20062;-64
2023/06/21 10:38:16;;;;;;;2.80;2.00;;;;;;;30.12;51.83;100831.00;5001484;28;20061;-66
2023/06/21 10:40:42;;;;;;;3.15;1.63;;;;;;;30.02;52.52;100832.38;5000529;28;20144;-65
2023/06/21 10:43:10;;;;;;;3.65;1.92;;;;;;;30.16;53.68;100830.78;5009593;28;20092;-64
2023/06/21 10:45:36;;;;;;;3.05;2.00;;;;;;;30.44;53.20;100828.41;5006370;28;20398;-64
2023/06/21 10:48:04;;;;;;;2.40;1.60;;;;;;;30.81;52.41;100829.34;5005278;28;20034;-65
2023/06/21 10:50:30;;;;;;;2.78;1.35;;;;;;;31.24;50.46;100827.50;5014921;28;20042;-66
2023/06/21 10:52:57;;;;;;;2.03;1.48;;;;;;;31.49;49.86;100846.22;5002731;28;20032;-65
2023/06/21 10:55:23;;;;;;;2.78;1.77;;;;;;;31.73;49.90;100836.28;5005934;28;20046;-65
2023/06/21 10:58:13;;;;;;;1.80;1.38;;;;;;;31.98;47.03;100843.81;5007195;28;20022;-65
2023/06/21 11:00:39;;;;;;;2.88;1.23;;;;;;;32.19;45.88;100838.84;4960372;28;20051;-64
2023/06/21 11:03:05;;;;;;;1.88;1.00;;;;;;;32.20;45.73;100850.78;4974068;28;20070;-65
2023/06/21 11:05:31;;;;;;;2.08;1.35;;;;;;;32.19;46.15;100843.69;4971246;28;20053;-65
2023/06/21 11:08:00;;;;;;;2.75;1.60;;;;;;;32.46;45.39;100857.75;4953942;28;20051;-64
2023/06/21 11:10:48;;;;;;;2.03;1.40;;;;;;;32.55;45.39;100854.00;4967521;28;20043;-65
2023/06/21 11:13:32;;;;;;;1.67;1.02;;;;;;;32.60;46.84;100851.22;4950123;28;20518;-67
2023/06/21 11:16:10;;;;;;;1.88;1.52;;;;;;;32.81;45.67;100858.16;4950636;28;20046;-67
2023/06/21 11:18:35;;;;;;;2.50;1.55;;;;;;;32.59;46.28;100860.13;4946385;28;20089;-66
2023/06/21 11:21:05;;;;;;;2.40;1.50;;;;;;;32.28;45.64;100852.59;4966204;28;20039;-65
2023/06/21 11:23:31;;;;;;;2.20;1.30;;;;;;;32.07;46.40;100862.38;4953734;28;20156;-66
2023/06/21 11:26:02;;;;;;;4.53;1.33;;;;;;;31.96;46.91;100863.06;4954702;28;20826;-65